createdAt,value
2019-05-07T01:57:46.279Z,28
2019-05-07T01:58:48.699Z,27.9
2019-05-07T01:59:52.708Z,28
2019-05-07T02:00:55.299Z,27.8
2019-05-07T02:01:58.358Z,27.8
2019-05-07T02:03:05.413Z,27.9
2019-05-07T02:04:07.569Z,27.8
2019-05-07T02:05:09.716Z,27.8
2019-05-07T02:06:14.205Z,27.7
2019-05-07T02:07:16.628Z,27.9
2019-05-07T02:08:19.046Z,27.9
2019-05-07T02:09:24.714Z,27.9
2019-05-07T02:10:27.139Z,27.9
2019-05-07T02:11:29.285Z,27.7
2019-05-07T02:12:33.645Z,27.9
2019-05-07T02:13:36.090Z,27.8
2019-05-07T02:14:38.258Z,27.8
2019-05-07T02:15:51.097Z,27.8
2019-05-07T02:16:47.745Z,28
2019-05-07T02:17:49.892Z,27.9
2019-05-07T02:18:55.078Z,28
2019-05-07T02:19:57.500Z,27.8
2019-05-07T02:20:59.383Z,27.9
2019-05-07T02:22:03.762Z,27.9
2019-05-07T02:23:05.928Z,28
2019-05-07T02:24:08.340Z,27.9
2019-05-07T02:25:12.455Z,28
2019-05-07T02:26:15.026Z,28
2019-05-07T02:27:17.633Z,27.7
2019-05-07T02:28:19.786Z,27.9
2019-05-07T02:29:23.904Z,27.8
2019-05-07T02:30:26.331Z,27.9
2019-05-07T02:31:28.474Z,28
2019-05-07T02:32:34.895Z,27.9
2019-05-07T02:33:37.314Z,27.6
2019-05-07T02:34:39.747Z,28.2
2019-05-07T02:35:45.200Z,27.8
2019-05-07T02:36:47.356Z,27.7
2019-05-07T02:37:53.182Z,27.8
2019-05-07T02:38:54.228Z,28.1
2019-05-07T02:39:56.387Z,28.1
2019-05-07T02:40:58.822Z,28
2019-05-07T02:42:04.775Z,27.9
2019-05-07T02:43:06.902Z,28
2019-05-07T02:44:10.092Z,27.9
2019-05-07T02:45:15.545Z,28.1
2019-05-07T02:46:27.239Z,28.1
2019-05-07T02:47:23.623Z,27.9
2019-05-07T02:48:25.855Z,27.9
2019-05-07T02:49:28.284Z,27.8
2019-05-07T02:50:34.692Z,27.8
2019-05-07T02:51:37.121Z,28
2019-05-07T02:52:39.280Z,28
2019-05-07T02:53:45.221Z,27.8
2019-05-07T02:54:47.372Z,28.1
2019-05-07T02:55:52.651Z,28
2019-05-07T02:56:54.821Z,27.9
2019-05-07T02:57:57.242Z,27.9
2019-05-07T02:58:59.362Z,28
2019-05-07T03:00:05.726Z,27.9
2019-05-07T03:01:07.876Z,28.1
2019-05-07T03:02:10.313Z,27.9
2019-05-07T03:03:15.772Z,27.9
2019-05-07T03:04:17.941Z,28
2019-05-07T03:05:22.891Z,27.9
2019-05-07T03:06:25.358Z,28
2019-05-07T03:07:27.785Z,28
2019-05-07T03:08:32.827Z,27.9
2019-05-07T03:09:35.186Z,27.9
2019-05-07T03:10:37.607Z,27.9
2019-05-07T03:11:39.762Z,27.8
2019-05-07T03:12:44.947Z,27.9
2019-05-07T03:13:47.100Z,27.8
2019-05-07T03:14:49.262Z,27.9
2019-05-07T03:15:54.722Z,27.8
2019-05-07T03:16:57.141Z,27.9
2019-05-07T03:17:59.579Z,27.8
2019-05-07T03:19:05.034Z,28
2019-05-07T03:20:07.457Z,28
2019-05-07T03:21:12.538Z,27.8
2019-05-07T03:22:14.573Z,27.7
2019-05-07T03:23:16.727Z,27.7
2019-05-07T03:24:19.150Z,27.6
2019-05-07T03:25:24.823Z,27.7
2019-05-07T03:26:26.967Z,27.8
2019-05-07T03:27:29.112Z,27.8
2019-05-07T03:28:35.526Z,27.8
2019-05-07T03:29:37.958Z,28
2019-05-07T03:30:44.932Z,27.8
2019-05-07T03:31:47.030Z,28
2019-05-07T03:32:49.915Z,27.6
2019-05-07T03:33:56.362Z,27.7
2019-05-07T03:34:58.968Z,27.6
2019-05-07T03:36:06.836Z,27.8
2019-05-07T03:37:13.279Z,27.9
2019-05-07T03:38:14.883Z,27.7
2019-05-07T03:39:17.295Z,27.8
2019-05-07T03:40:19.734Z,27.8
2019-05-07T03:41:25.186Z,27.8
2019-05-07T03:42:27.370Z,27.7
2019-05-07T03:43:32.296Z,27.9
2019-05-07T03:44:34.789Z,27.7
2019-05-07T03:45:37.224Z,27.8
2019-05-07T03:46:54.367Z,27.5
2019-05-07T03:47:44.640Z,27.6
2019-05-07T03:48:47.064Z,27.7
2019-05-07T03:49:49.216Z,27.7
2019-05-07T03:50:55.178Z,27.7
2019-05-07T03:51:57.606Z,27.6
2019-05-07T03:53:02.523Z,27.6
2019-05-07T03:54:05.015Z,27.7
2019-05-07T03:55:07.163Z,27.6
2019-05-07T03:56:09.339Z,27.7
2019-05-07T03:57:15.767Z,27.6
2019-05-07T03:58:18.397Z,27.7
2019-05-07T03:59:25.054Z,27.8
2019-05-07T04:00:27.477Z,27.6
2019-05-07T04:01:29.073Z,27.8
2019-05-07T04:02:35.028Z,27.7
2019-05-07T04:03:37.184Z,27.6
2019-05-07T04:04:39.610Z,27.7
2019-05-07T04:05:45.075Z,27.8
2019-05-07T04:06:47.608Z,27.6
2019-05-07T04:07:50.054Z,27.8
2019-05-07T04:08:55.504Z,27.4
2019-05-07T04:09:57.932Z,27.8
2019-05-07T04:11:03.166Z,27.8
2019-05-07T04:12:05.347Z,27.8
2019-05-07T04:13:07.491Z,27.7
2019-05-07T04:14:09.933Z,27.6
2019-05-07T04:15:19.050Z,27.8
2019-05-07T04:16:20.382Z,27.6
2019-05-07T04:17:26.796Z,27.7
2019-05-07T04:18:32.628Z,27.8
2019-05-07T04:19:34.654Z,27.8
2019-05-07T04:20:36.826Z,27.8
2019-05-07T04:21:39.254Z,27.5
2019-05-07T04:22:45.199Z,27.6
2019-05-07T04:23:47.063Z,27.5
2019-05-07T04:24:49.493Z,27.8
2019-05-07T04:25:54.950Z,27.8
2019-05-07T04:26:56.534Z,27.7
2019-05-07T04:27:58.682Z,27.7
2019-05-07T04:29:06.275Z,27.8
2019-05-07T04:30:08.609Z,27.6
2019-05-07T04:31:14.748Z,27.8
2019-05-07T04:32:17.165Z,27.6
2019-05-07T04:33:19.343Z,27.7
2019-05-07T04:34:25.761Z,27.5
2019-05-07T04:35:27.916Z,27.7
2019-05-07T04:36:30.349Z,27.5
2019-05-07T04:37:35.809Z,27.7
2019-05-07T04:38:38.232Z,27.7
2019-05-07T04:39:42.842Z,27.7
2019-05-07T04:40:45.631Z,27.5
2019-05-07T04:41:48.086Z,27.6
2019-05-07T04:42:54.978Z,27.6
2019-05-07T04:43:57.128Z,27.7
2019-05-07T04:44:59.523Z,27.5
2019-05-07T04:46:05.451Z,27.6
2019-05-07T04:47:07.906Z,27.7
2019-05-07T04:48:10.043Z,27.6
2019-05-07T04:49:15.714Z,27.9
2019-05-07T04:50:34.359Z,27.5
2019-05-07T04:51:23.285Z,27.7
2019-05-07T04:52:25.808Z,27.7
2019-05-07T04:53:28.234Z,27.7
2019-05-07T04:54:34.647Z,27.8
2019-05-07T04:55:37.077Z,27.6
2019-05-07T04:56:39.512Z,27.6
2019-05-07T04:57:44.965Z,27.7
2019-05-07T04:58:47.403Z,27.6
2019-05-07T04:59:50.024Z,27.7
2019-05-07T05:00:55.473Z,27.7
2019-05-07T05:01:57.623Z,27.8
2019-05-07T05:03:03.111Z,27.8
2019-05-07T05:04:21.870Z,27.6
2019-05-07T05:05:12.687Z,27.7
2019-05-07T05:06:14.999Z,27.6
2019-05-07T05:07:17.425Z,27.7
2019-05-07T05:08:19.326Z,27.8
2019-05-07T05:09:25.317Z,27.6
2019-05-07T05:10:27.663Z,27.6
2019-05-07T05:11:29.751Z,27.7
2019-05-07T05:12:35.205Z,27.7
2019-05-07T05:13:37.080Z,27.8
2019-05-07T05:14:39.512Z,27.7
2019-05-07T05:15:45.446Z,27.8
2019-05-07T05:16:47.872Z,27.8
2019-05-07T05:17:53.217Z,27.7
2019-05-07T05:18:55.283Z,27.6
2019-05-07T05:20:00.305Z,27.7
2019-05-07T05:21:02.827Z,27.8
2019-05-07T05:22:05.314Z,27.5
2019-05-07T05:23:07.735Z,27.7
2019-05-07T05:24:14.640Z,27.7
2019-05-07T05:25:17.058Z,27.5
2019-05-07T05:26:21.660Z,27.7
2019-05-07T05:27:24.468Z,27.6
2019-05-07T05:28:26.916Z,27.6
2019-05-07T05:29:29.073Z,27.7
2019-05-07T05:30:33.756Z,27.8
2019-05-07T05:31:35.918Z,27.7
2019-05-07T05:32:37.790Z,27.6
2019-05-07T05:33:41.897Z,27.6
2019-05-07T05:34:44.522Z,27.6
2019-05-07T05:35:46.978Z,27.6
2019-05-07T05:36:49.412Z,27.7
2019-05-07T05:37:54.116Z,27.8
2019-05-07T05:38:57.326Z,27.6
2019-05-07T05:40:06.048Z,27.7
2019-05-07T05:41:05.078Z,27.7
2019-05-07T05:42:07.495Z,27.6
2019-05-07T05:43:09.668Z,27.5
2019-05-07T05:44:13.816Z,27.5
2019-05-07T05:45:16.259Z,27.6
2019-05-07T05:46:18.508Z,27.7
2019-05-07T05:47:23.150Z,27.9
2019-05-07T05:48:25.297Z,27.4
2019-05-07T05:49:26.889Z,27.6
2019-05-07T05:50:29.328Z,27.7
2019-05-07T05:51:35.266Z,27.7
2019-05-07T05:52:37.430Z,27.5
2019-05-07T05:53:39.850Z,27.8
2019-05-07T05:54:45.788Z,27.8
2019-05-07T05:55:48.214Z,27.6
2019-05-07T05:56:51.962Z,27.6
2019-05-07T05:57:54.478Z,27.6
2019-05-07T05:58:56.910Z,27.7
2019-05-07T05:59:59.056Z,27.7
2019-05-07T06:01:04.518Z,27.4
2019-05-07T06:02:06.941Z,27.5
2019-05-07T06:03:09.085Z,27.4
2019-05-07T06:04:13.469Z,27.4
2019-05-07T06:05:15.798Z,27.7
2019-05-07T06:06:17.952Z,27.6
2019-05-07T06:07:24.580Z,27.7
2019-05-07T06:08:27.010Z,27.6
2019-05-07T06:09:29.431Z,27.5
2019-05-07T06:10:35.376Z,27.7
2019-05-07T06:11:37.794Z,27.7
2019-05-07T06:12:40.220Z,27.7
2019-05-07T06:13:44.463Z,27.6
2019-05-07T06:14:46.626Z,27.5
2019-05-07T06:15:49.052Z,27.6
2019-05-07T06:16:53.639Z,27.4
2019-05-07T06:17:56.080Z,27.4
2019-05-07T06:18:58.518Z,27.6
2019-05-07T06:20:04.661Z,27.5
2019-05-07T06:21:06.835Z,27.5
2019-05-07T06:22:08.989Z,27.7
2019-05-07T06:23:15.423Z,27.5
2019-05-07T06:24:17.844Z,27.4
2019-05-07T06:25:23.568Z,27.5
2019-05-07T06:26:24.979Z,27.4
2019-05-07T06:27:27.405Z,27.6
2019-05-07T06:28:29.841Z,27.6
2019-05-07T06:29:34.425Z,27.4
2019-05-07T06:30:36.848Z,27.5
2019-05-07T06:31:39.020Z,27.6
2019-05-07T06:32:43.662Z,27.3
2019-05-07T06:33:45.814Z,27.2
2019-05-07T06:34:47.990Z,27.5
2019-05-07T06:35:54.920Z,27.3
2019-05-07T06:36:57.376Z,27.4
2019-05-07T06:37:59.540Z,27.5
2019-05-07T06:39:05.490Z,27.6
2019-05-07T06:40:07.680Z,27.4
2019-05-07T06:41:12.138Z,27.6
2019-05-07T06:42:14.645Z,27.4
2019-05-07T06:43:17.083Z,27.3
2019-05-07T06:44:18.958Z,27.5
2019-05-07T06:45:24.914Z,27.3
2019-05-07T06:46:27.051Z,27.6
2019-05-07T06:47:29.180Z,27.5
2019-05-07T06:48:41.630Z,27.4
2019-05-07T06:49:38.524Z,27.7
2019-05-07T06:50:45.420Z,27.5
2019-05-07T06:51:47.891Z,27.5
2019-05-07T06:52:51.875Z,27.4
2019-05-07T06:53:54.408Z,27.3
2019-05-07T06:54:56.848Z,27.4
2019-05-07T06:55:59.006Z,27.6
2019-05-07T06:57:05.426Z,27.3
2019-05-07T06:58:07.600Z,27.4
2019-05-07T06:59:10.035Z,27.1
2019-05-07T07:00:15.491Z,27.3
2019-05-07T07:01:17.638Z,27.3
2019-05-07T07:02:22.298Z,27.4
2019-05-07T07:03:25.059Z,27.5
2019-05-07T07:04:27.217Z,27.7
2019-05-07T07:05:29.380Z,27.3
2019-05-07T07:06:35.315Z,27.4
2019-05-07T07:07:37.780Z,27.1
2019-05-07T07:08:44.397Z,27.3
2019-05-07T07:09:46.823Z,27.3
2019-05-07T07:10:48.961Z,27.4
2019-05-07T07:11:53.587Z,27.5
2019-05-07T07:12:55.559Z,27.4
2019-05-07T07:13:57.985Z,27.5
2019-05-07T07:15:02.549Z,27.6
2019-05-07T07:16:05.116Z,27.3
2019-05-07T07:17:06.998Z,27.6
2019-05-07T07:18:08.883Z,27.5
2019-05-07T07:19:13.245Z,27.4
2019-05-07T07:20:15.684Z,27.3
2019-05-07T07:21:18.110Z,27.5
2019-05-07T07:22:22.427Z,27.5
2019-05-07T07:23:24.586Z,27.4
2019-05-07T07:24:27.045Z,27.3
2019-05-07T07:25:29.613Z,27.5
2019-05-07T07:26:35.072Z,27.2
2019-05-07T07:27:37.214Z,27.4
2019-05-07T07:28:39.856Z,27.4
2019-05-07T07:29:45.021Z,27.5
2019-05-07T07:30:47.498Z,27.5
2019-05-07T07:31:49.641Z,27.4
2019-05-07T07:32:55.311Z,27.3
2019-05-07T07:33:57.731Z,27.3
2019-05-07T07:35:04.630Z,27.1
2019-05-07T07:36:07.053Z,27.4
2019-05-07T07:37:12.620Z,27.3
2019-05-07T07:38:14.463Z,27.5
2019-05-07T07:39:16.589Z,27.3
2019-05-07T07:40:19.037Z,27.3
2019-05-07T07:41:23.102Z,27.3
2019-05-07T07:42:25.242Z,27.2
2019-05-07T07:43:27.405Z,27.6
2019-05-07T07:44:29.832Z,27.2
2019-05-07T07:45:34.468Z,27.3
2019-05-07T07:46:36.911Z,27.3
2019-05-07T07:47:39.337Z,27.5
2019-05-07T07:48:44.794Z,27.4
2019-05-07T07:49:46.961Z,27.5
2019-05-07T07:50:49.139Z,27.6
2019-05-07T07:51:55.073Z,27.2
2019-05-07T07:52:57.490Z,27.3
2019-05-07T07:53:59.664Z,27.4
2019-05-07T07:55:04.145Z,27.4
2019-05-07T07:56:06.581Z,27.4
2019-05-07T07:57:08.741Z,27.4
2019-05-07T07:58:13.131Z,27.6
2019-05-07T07:59:15.560Z,27.2
2019-05-07T08:00:17.988Z,27.2
2019-05-07T08:01:22.391Z,27.3
2019-05-07T08:02:25.110Z,27.4
2019-05-07T08:03:27.540Z,27.5
2019-05-07T08:04:31.972Z,27.4
2019-05-07T08:05:34.310Z,27.3
2019-05-07T08:06:36.743Z,27.4
2019-05-07T08:07:39.168Z,27.4
2019-05-07T08:08:43.232Z,27.4
2019-05-07T08:09:45.658Z,27.5
2019-05-07T08:10:47.542Z,27.5
2019-05-07T08:11:49.700Z,27.2
2019-05-07T08:12:54.171Z,27.5
2019-05-07T08:13:56.590Z,27.4
2019-05-07T08:15:13.248Z,27.3
2019-05-07T08:16:03.994Z,27.3
2019-05-07T08:17:06.154Z,27.4
2019-05-07T08:18:08.309Z,27.2
2019-05-07T08:19:21.463Z,27.6
2019-05-07T08:20:18.081Z,27.3
2019-05-07T08:21:22.939Z,27.4
2019-05-07T08:22:25.431Z,27.4
2019-05-07T08:23:27.340Z,27.4
2019-05-07T08:24:31.786Z,27.2
2019-05-07T08:25:34.494Z,27.5
2019-05-07T08:26:36.964Z,27.4
2019-05-07T08:27:38.875Z,27.4
2019-05-07T08:28:43.186Z,27.4
2019-05-07T08:29:45.343Z,27.6
2019-05-07T08:30:47.778Z,27.5
2019-05-07T08:31:51.709Z,27.5
2019-05-07T08:32:53.902Z,27.5
2019-05-07T08:33:56.047Z,27.4
2019-05-07T08:34:58.208Z,27.5
2019-05-07T08:36:04.830Z,27.3
2019-05-07T08:37:07.274Z,27.3
2019-05-07T08:38:09.701Z,27.3
2019-05-07T08:39:14.240Z,27.4
2019-05-07T08:40:16.666Z,27.4
2019-05-07T08:41:19.110Z,27.3
2019-05-07T08:42:25.054Z,27.5
2019-05-07T08:43:27.492Z,27.5
2019-05-07T08:44:29.653Z,27.4
2019-05-07T08:45:35.213Z,27.4
2019-05-07T08:46:38.100Z,27.7
2019-05-07T08:47:42.678Z,27.4
2019-05-07T08:48:45.286Z,27.4
2019-05-07T08:49:47.162Z,27.5
2019-05-07T08:50:49.586Z,27.5
2019-05-07T08:51:53.979Z,27.6
2019-05-07T08:52:56.146Z,27.4
2019-05-07T08:53:58.282Z,27.5
2019-05-07T08:55:05.178Z,27.5
2019-05-07T08:56:07.328Z,27.3
2019-05-07T08:57:11.623Z,27.5
2019-05-07T08:58:14.734Z,27.4
2019-05-07T08:59:17.151Z,27.2
2019-05-07T09:00:19.580Z,27.5
2019-05-07T09:01:24.233Z,27.5
2019-05-07T09:02:26.146Z,27.3
2019-05-07T09:03:28.199Z,27.5
2019-05-07T09:04:33.074Z,27.6
2019-05-07T09:05:35.784Z,27.5
2019-05-07T09:06:37.959Z,27.5
2019-05-07T09:07:39.836Z,27.3
2019-05-07T09:08:43.933Z,27.3
2019-05-07T09:09:46.359Z,27.4
2019-05-07T09:10:48.801Z,27.2
2019-05-07T09:11:53.467Z,27.5
2019-05-07T09:12:55.619Z,27.1
2019-05-07T09:13:58.035Z,27.3
2019-05-07T09:15:02.412Z,27.3
2019-05-07T09:16:04.827Z,27.3
2019-05-07T09:17:07.263Z,27.3
2019-05-07T09:18:09.401Z,27.5
2019-05-07T09:19:13.542Z,27.3
2019-05-07T09:20:15.964Z,27.6
2019-05-07T09:21:18.116Z,27.6
2019-05-07T09:22:19.963Z,27.3
2019-05-07T09:23:25.441Z,27.5
2019-05-07T09:24:27.601Z,27.6
2019-05-07T09:25:30.037Z,27.7
2019-05-07T09:26:34.147Z,27.4
2019-05-07T09:27:36.569Z,27.4
2019-05-07T09:28:38.989Z,27.4
2019-05-07T09:29:43.379Z,27.4
2019-05-07T09:30:45.541Z,27.4
2019-05-07T09:31:47.686Z,27.3
2019-05-07T09:32:52.148Z,27.2
2019-05-07T09:33:54.746Z,27.4
2019-05-07T09:34:56.922Z,27.5
2019-05-07T09:35:59.069Z,27.3
2019-05-07T09:37:03.663Z,27.3
2019-05-07T09:38:06.104Z,27.2
2019-05-07T09:39:08.273Z,27.3
2019-05-07T09:40:14.681Z,27.5
2019-05-07T09:41:16.842Z,27.5
2019-05-07T09:42:18.761Z,27.3
2019-05-07T09:43:25.231Z,27.5
2019-05-07T09:44:27.272Z,27.5
2019-05-07T09:45:29.131Z,27.2
2019-05-07T09:46:33.479Z,27.2
2019-05-07T09:47:35.941Z,27.5
2019-05-07T09:48:38.364Z,27.3
2019-05-07T09:49:42.696Z,27.4
2019-05-07T09:50:45.323Z,27.4
2019-05-07T09:51:47.770Z,27.4
2019-05-07T09:52:52.451Z,27.4
2019-05-07T09:53:54.701Z,27.4
2019-05-07T09:54:57.043Z,27.3
2019-05-07T09:55:59.319Z,27.3
2019-05-07T09:57:04.815Z,27.4
2019-05-07T09:58:07.010Z,27.2
2019-05-07T09:59:09.171Z,27.3
2019-05-07T10:00:13.567Z,27.2
2019-05-07T10:01:15.754Z,27.3
2019-05-07T10:02:18.192Z,27.5
2019-05-07T10:03:20.343Z,27.4
2019-05-07T10:04:24.462Z,27.3
2019-05-07T10:05:26.887Z,27.4
2019-05-07T10:06:29.317Z,27.2
2019-05-07T10:07:34.009Z,27.2
2019-05-07T10:08:36.442Z,27.2
2019-05-07T10:09:38.873Z,27.5
2019-05-07T10:10:43.157Z,27.2
2019-05-07T10:11:45.293Z,27.2
2019-05-07T10:12:47.730Z,27.2
2019-05-07T10:13:49.885Z,27.4
2019-05-07T10:14:54.289Z,27.2
2019-05-07T10:15:56.481Z,27.2
2019-05-07T10:16:58.901Z,27.2
2019-05-07T10:18:05.307Z,27.4
2019-05-07T10:19:07.744Z,27.1
2019-05-07T10:20:19.037Z,27.3
2019-05-07T10:21:14.896Z,27.3
2019-05-07T10:22:17.329Z,27.4
2019-05-07T10:23:19.774Z,27.3
2019-05-07T10:24:25.235Z,27.4
2019-05-07T10:25:27.658Z,27.4
2019-05-07T10:26:31.684Z,27.4
2019-05-07T10:27:34.253Z,27.4
2019-05-07T10:28:36.383Z,27.1
2019-05-07T10:29:38.803Z,27.3
2019-05-07T10:30:45.229Z,27.3
2019-05-07T10:31:47.653Z,27.3
2019-05-07T10:32:52.482Z,27.3
2019-05-07T10:33:55.091Z,27.5
2019-05-07T10:34:57.254Z,27.3
2019-05-07T10:36:01.929Z,27.4
2019-05-07T10:37:04.676Z,27.4
2019-05-07T10:38:06.876Z,27.4
2019-05-07T10:39:09.443Z,27.5
2019-05-07T10:40:13.526Z,27.3
2019-05-07T10:41:15.698Z,27.3
2019-05-07T10:42:17.845Z,27.4
2019-05-07T10:43:22.183Z,27.4
2019-05-07T10:44:24.725Z,27.3
2019-05-07T10:45:27.170Z,27.1
2019-05-07T10:46:29.346Z,27.4
2019-05-07T10:47:33.322Z,27.3
2019-05-07T10:48:35.466Z,27.5
2019-05-07T10:49:37.898Z,27.3
2019-05-07T10:50:39.812Z,27.2
2019-05-07T10:51:44.152Z,27.3
2019-05-07T10:52:46.580Z,27.3
2019-05-07T10:53:49.014Z,27.1
2019-05-07T10:54:59.555Z,27.4
2019-05-07T10:55:58.702Z,27.3
2019-05-07T10:57:03.199Z,27.1
2019-05-07T10:58:05.825Z,27.4
2019-05-07T10:59:08.260Z,27.4
2019-05-07T11:00:14.890Z,27.4
2019-05-07T11:01:17.308Z,27.4
2019-05-07T11:02:21.824Z,27.1
2019-05-07T11:03:24.367Z,27.2
2019-05-07T11:04:39.215Z,27.2
2019-05-07T11:05:32.561Z,27.4
2019-05-07T11:06:34.903Z,27.4
2019-05-07T11:07:37.335Z,27.2
2019-05-07T11:08:39.753Z,27.3
2019-05-07T11:09:44.043Z,27.4
2019-05-07T11:10:46.188Z,27.1
2019-05-07T11:11:48.624Z,27.4
2019-05-07T11:12:53.229Z,27.5
2019-05-07T11:13:56.234Z,27.2
2019-05-07T11:14:58.683Z,27.3
2019-05-07T11:16:03.223Z,27.4
2019-05-07T11:17:06.794Z,27.3
2019-05-07T11:18:08.940Z,27.4
2019-05-07T11:19:13.172Z,27.2
2019-05-07T11:20:16.213Z,27.4
2019-05-07T11:21:18.635Z,27.3
2019-05-07T11:22:23.158Z,27.5
2019-05-07T11:23:25.583Z,27.2
2019-05-07T11:24:27.773Z,27.2
2019-05-07T11:25:32.582Z,27.3
2019-05-07T11:26:35.015Z,27.3
2019-05-07T11:27:37.436Z,27.3
2019-05-07T11:28:39.873Z,27.2
2019-05-07T11:29:42.928Z,27.4
2019-05-07T11:30:45.490Z,27.4
2019-05-07T11:31:47.634Z,27.5
2019-05-07T11:32:52.036Z,27.4
2019-05-07T11:33:54.422Z,27.4
2019-05-07T11:34:56.856Z,27.4
2019-05-07T11:35:58.728Z,27.2
2019-05-07T11:37:04.675Z,27.3
2019-05-07T11:38:18.506Z,27.3
2019-05-07T11:39:12.316Z,27.2
2019-05-07T11:40:14.779Z,27.3
2019-05-07T11:41:22.887Z,27.2
2019-05-07T11:42:25.104Z,27.4
2019-05-07T11:43:28.085Z,27.3
2019-05-07T11:44:32.054Z,27.2
2019-05-07T11:45:34.613Z,27.4
2019-05-07T11:46:37.637Z,27.4
2019-05-07T11:47:44.541Z,27.3
2019-05-07T11:48:46.703Z,27.4
2019-05-07T11:49:49.143Z,27.4
2019-05-07T11:51:03.204Z,27.5
2019-05-07T11:52:00.062Z,27.4
2019-05-07T11:53:02.502Z,27.4
2019-05-07T11:54:04.943Z,27.5
2019-05-07T11:55:07.383Z,27.2
2019-05-07T11:56:11.650Z,27.5
2019-05-07T11:57:14.148Z,27.4
2019-05-07T11:58:16.563Z,27.6
2019-05-07T11:59:18.723Z,27.5
2019-05-07T12:00:24.672Z,27.3
2019-05-07T12:01:34.726Z,27.2
2019-05-07T12:02:32.114Z,27.3
2019-05-07T12:03:34.523Z,27.6
2019-05-07T12:04:36.956Z,27.4
2019-05-07T12:05:39.387Z,27.4
2019-05-07T12:06:44.848Z,27.2
2019-05-07T12:07:47.273Z,27.2
2019-05-07T12:08:51.906Z,27.3
2019-05-07T12:09:54.123Z,27.4
2019-05-07T12:10:56.575Z,27.2
2019-05-07T12:11:59.002Z,27.4
2019-05-07T12:13:03.376Z,27.2
2019-05-07T12:14:05.803Z,27.3
2019-05-07T12:15:08.236Z,27.4
2019-05-07T12:16:15.144Z,27.6
2019-05-07T12:17:17.573Z,27.2
2019-05-07T12:18:19.992Z,27.3
2019-05-07T12:19:25.180Z,27.3
2019-05-07T12:20:27.429Z,27.5
2019-05-07T12:21:30.031Z,27.5
2019-05-07T12:22:31.901Z,27.4
2019-05-07T12:23:34.062Z,27.4
2019-05-07T12:24:36.215Z,27.3
2019-05-07T12:25:38.645Z,27.2
2019-05-07T12:26:43.286Z,27.2
2019-05-07T12:27:45.704Z,27.3
2019-05-07T12:28:48.144Z,27.3
2019-05-07T12:29:52.915Z,27.2
2019-05-07T12:30:55.343Z,27.4
2019-05-07T12:31:57.783Z,27.3
2019-05-07T12:33:01.819Z,27.2
2019-05-07T12:34:04.750Z,27.3
2019-05-07T12:35:07.178Z,27.5
2019-05-07T12:36:09.335Z,27.2
2019-05-07T12:37:15.009Z,27.6
2019-05-07T12:38:17.434Z,27.1
2019-05-07T12:39:21.584Z,27.4
2019-05-07T12:40:24.345Z,27.1
2019-05-07T12:41:26.784Z,27.3
2019-05-07T12:42:28.957Z,27.1
2019-05-07T12:43:33.214Z,27.4
2019-05-07T12:44:35.667Z,27.3
2019-05-07T12:45:38.086Z,27.5
2019-05-07T12:46:42.537Z,27.2
2019-05-07T12:47:44.985Z,27.4
2019-05-07T12:48:47.437Z,27.4
2019-05-07T12:49:49.868Z,27.3
2019-05-07T12:50:52.334Z,27.2
2019-05-07T12:51:54.270Z,27.4
2019-05-07T12:52:56.695Z,27.4
2019-05-07T12:53:59.134Z,27.3
2019-05-07T12:55:05.578Z,27.4
2019-05-07T12:56:07.742Z,27.4
2019-05-07T12:57:11.758Z,27.2
2019-05-07T12:58:14.323Z,27.4
2019-05-07T12:59:16.756Z,27.4
2019-05-07T13:00:18.624Z,27.3
2019-05-07T13:01:25.518Z,27.5
2019-05-07T13:02:37.854Z,27.6
2019-05-07T13:03:32.649Z,27.5
2019-05-07T13:04:35.088Z,27.2
2019-05-07T13:05:36.985Z,27.6
2019-05-07T13:06:39.120Z,27.5
2019-05-07T13:07:41.839Z,27.6
2019-05-07T13:08:44.038Z,27.4
2019-05-07T13:09:46.177Z,27.3
2019-05-07T13:10:48.609Z,27.1
2019-05-07T13:11:54.550Z,27.4
2019-05-07T13:12:56.714Z,27.2
2019-05-07T13:13:59.162Z,27.3
2019-05-07T13:15:04.190Z,27.3
2019-05-07T13:16:07.355Z,27.6
2019-05-07T13:17:12.059Z,27.4
2019-05-07T13:18:15.369Z,27.2
2019-05-07T13:19:17.215Z,27.6
2019-05-07T13:20:19.342Z,27.5
2019-05-07T13:21:23.626Z,27.4
2019-05-07T13:22:25.508Z,27.6
2019-05-07T13:23:27.939Z,27.4
2019-05-07T13:24:34.351Z,27.5
2019-05-07T13:25:36.773Z,27.5
2019-05-07T13:26:39.219Z,27.4
2019-05-07T13:27:45.164Z,27.6
2019-05-07T13:28:47.587Z,27.5
2019-05-07T13:29:49.743Z,27.4
2019-05-07T13:30:55.428Z,27.3
2019-05-07T13:31:57.864Z,27.2
2019-05-07T13:33:01.962Z,27.4
2019-05-07T13:34:04.718Z,27.4
2019-05-07T13:35:07.158Z,27.4
2019-05-07T13:36:09.326Z,27.3
2019-05-07T13:37:13.790Z,27.2
2019-05-07T13:38:16.224Z,27.5
2019-05-07T13:39:23.479Z,27.4
2019-05-07T13:40:25.997Z,27.6
2019-05-07T13:41:28.155Z,27.7
2019-05-07T13:42:31.940Z,27.4
2019-05-07T13:43:34.372Z,27.6
2019-05-07T13:44:36.795Z,27.3
2019-05-07T13:45:39.242Z,27.4
2019-05-07T13:46:44.910Z,27.4
2019-05-07T13:47:47.184Z,27.4
2019-05-07T13:48:49.346Z,27.5
2019-05-07T13:49:53.647Z,27.4
2019-05-07T13:50:56.494Z,27.3
2019-05-07T13:52:03.352Z,27.5
2019-05-07T13:53:03.660Z,27.5
2019-05-07T13:54:06.091Z,27.6
2019-05-07T13:55:08.524Z,27.6
2019-05-07T13:56:15.422Z,27.7
2019-05-07T13:57:17.775Z,27.6
2019-05-07T13:58:20.198Z,27.6
2019-05-07T13:59:25.656Z,27.3
2019-05-07T14:00:27.810Z,27.6
2019-05-07T14:01:30.242Z,27.4
2019-05-07T14:02:34.686Z,27.5
2019-05-07T14:03:37.106Z,27.7
2019-05-07T14:04:39.524Z,27.8
2019-05-07T14:05:43.399Z,27.6
2019-05-07T14:06:45.819Z,27.4
2019-05-07T14:07:48.237Z,27.4
2019-05-07T14:08:51.782Z,27.6
2019-05-07T14:09:54.271Z,27.4
2019-05-07T14:10:56.710Z,27.5
2019-05-07T14:11:58.589Z,27.2
2019-05-07T14:13:11.118Z,27.5
2019-05-07T14:14:09.512Z,27.5
2019-05-07T14:16:35.002Z,27.6
2019-05-07T14:17:37.434Z,27.5
2019-05-07T14:18:39.876Z,27.3
2019-05-07T14:19:42.344Z,27.4
2019-05-07T14:20:45.028Z,27.6
2019-05-07T14:21:47.192Z,27.6
2019-05-07T14:22:51.569Z,27.7
2019-05-07T14:23:54.122Z,27.5
2019-05-07T14:24:56.559Z,27.7
2019-05-07T14:25:58.994Z,27.7
2019-05-07T14:27:04.460Z,27.5
2019-05-07T14:28:06.882Z,27.7
2019-05-07T14:29:09.502Z,27.8
2019-05-07T14:30:12.910Z,27.5
2019-05-07T14:31:15.453Z,27.7
2019-05-07T14:32:17.593Z,27.4
2019-05-07T14:33:20.004Z,27.5
2019-05-07T14:34:25.477Z,27.7
2019-05-07T14:35:27.909Z,27.6
2019-05-07T14:36:34.811Z,27.6
2019-05-07T14:37:37.248Z,27.7
2019-05-07T14:38:44.322Z,27.6
2019-05-07T14:39:46.496Z,27.7
2019-05-07T14:40:48.931Z,27.7
2019-05-07T14:41:53.462Z,27.5
2019-05-07T14:42:55.630Z,27.7
2019-05-07T14:43:58.064Z,27.6
2019-05-07T14:45:00.488Z,27.7
2019-05-07T14:46:02.926Z,27.6
2019-05-07T14:47:05.354Z,27.2
2019-05-07T14:48:07.794Z,27.7
2019-05-07T14:49:14.689Z,27.7
2019-05-07T14:50:16.838Z,27.4
2019-05-07T14:51:19.269Z,27.4
2019-05-07T14:52:32.067Z,27.6
2019-05-07T14:53:28.953Z,27.4
2019-05-07T14:54:35.388Z,27.5
2019-05-07T14:55:37.524Z,27.5
2019-05-07T14:56:39.593Z,27.7
2019-05-07T14:57:45.263Z,27.7
2019-05-07T14:58:47.140Z,27.6
2019-05-07T14:59:49.581Z,27.4
2019-05-07T15:00:55.037Z,27.5
2019-05-07T15:01:57.475Z,27.6
2019-05-07T15:03:01.773Z,27.4
2019-05-07T15:04:04.047Z,27.7
2019-05-07T15:05:06.400Z,27.6
2019-05-07T15:06:09.622Z,27.4
2019-05-07T15:07:14.022Z,27.5
2019-05-07T15:08:16.453Z,27.3
2019-05-07T15:09:18.869Z,27.5
2019-05-07T15:10:23.392Z,27.4
2019-05-07T15:11:25.825Z,27.5
2019-05-07T15:12:27.994Z,27.6
2019-05-07T15:13:32.253Z,27.5
2019-05-07T15:14:34.543Z,27.7
2019-05-07T15:15:36.972Z,27.4
2019-05-07T15:16:39.396Z,27.6
2019-05-07T15:17:44.062Z,27.5
2019-05-07T15:18:47.660Z,27.4
2019-05-07T15:19:52.085Z,27.6
2019-05-07T15:20:54.532Z,27.6
2019-05-07T15:21:56.961Z,27.4
2019-05-07T15:22:59.396Z,27.4
2019-05-07T15:24:05.343Z,27.6
2019-05-07T15:25:07.774Z,27.3
2019-05-07T15:26:10.207Z,27.5
2019-05-07T15:27:14.713Z,27.2
2019-05-07T15:28:16.601Z,27.6
2019-05-07T15:29:19.042Z,27.3
2019-05-07T15:30:23.025Z,27.4
2019-05-07T15:31:25.442Z,27.4
2019-05-07T15:32:27.871Z,27.6
2019-05-07T15:33:32.182Z,27.5
2019-05-07T15:34:35.036Z,27.5
2019-05-07T15:35:37.472Z,27.6
2019-05-07T15:36:39.919Z,27.5
2019-05-07T15:37:44.362Z,27.4
2019-05-07T15:38:46.824Z,27.6
2019-05-07T15:39:49.364Z,27.4
2019-05-07T15:40:53.706Z,27.4
2019-05-07T15:41:56.137Z,27.5
2019-05-07T15:42:59.376Z,27.5
2019-05-07T15:44:04.080Z,27.3
2019-05-07T15:45:06.526Z,27.4
2019-05-07T15:46:09.552Z,27.5
2019-05-07T15:47:13.815Z,27.6
2019-05-07T15:48:15.972Z,27.4
2019-05-07T15:49:18.410Z,27.4
2019-05-07T15:50:23.192Z,27.4
2019-05-07T15:51:25.625Z,27.5
2019-05-07T15:52:28.058Z,27.5
2019-05-07T15:53:32.238Z,27.4
2019-05-07T15:54:34.261Z,27.5
2019-05-07T15:55:36.162Z,27.4
2019-05-07T15:56:38.022Z,27.4
2019-05-07T15:57:40.162Z,27.5
2019-05-07T15:58:44.753Z,27.4
2019-05-07T15:59:46.918Z,27.3
2019-05-07T16:00:49.079Z,27.4
2019-05-07T16:01:53.609Z,27.3